Time;durP1;ratioP1;P1;durP2;ratioP2;P2;SDS_P1;SDS_P2;PMS_P1;PMS_P2;Temp;Humidity;BMP_temperature;BMP_pressure;BME280_temperature;BME280_humidity;BME280_pressure;Samples;Min_cycle;Max_cycle;Signal;HPM_P1;HPM_P2
2021/12/22 00:02:29;;;;;;;;;;;;;;;-4.76;100.00;96333.16;10359187;28;1772;-72
2021/12/22 00:07:33;;;;;;;;;;;;;;;-4.77;100.00;96344.63;10356388;28;1918;-72
2021/12/22 00:12:37;;;;;;;;;;;;;;;-4.85;100.00;96336.75;10376762;28;1847;-72
2021/12/22 00:17:40;;;;;;;;;;;;;;;-4.86;100.00;96329.88;10352246;28;1949;-72
2021/12/22 00:22:44;;;;;;;;;;;;;;;-5.04;100.00;96343.97;10358359;28;2451;-72
2021/12/22 00:27:48;;;;;;;;;;;;;;;-5.00;100.00;96345.28;10358691;28;1985;-73
2021/12/22 00:32:54;;;;;;;;;;;;;;;-5.05;100.00;96337.06;10349791;28;1914;-73
2021/12/22 00:37:57;;;;;;;;;;;;;;;-5.01;100.00;96341.03;10356411;28;1958;-73
2021/12/22 00:43:01;;;;;;;;;;;;;;;-5.07;100.00;96338.25;10358414;28;1894;-73
2021/12/22 00:48:04;;;;;;;;;;;;;;;-5.09;100.00;96345.44;10359231;28;1914;-72
2021/12/22 00:53:08;;;;;;;;;;;;;;;-5.10;100.00;96347.22;10358890;28;1712;-72
2021/12/22 00:58:11;;;;;;;;;;;;;;;-5.23;100.00;96345.09;10361172;28;1804;-72
2021/12/22 01:03:15;;;;;;;;;;;;;;;-5.18;100.00;96344.59;10372470;28;1776;-72
2021/12/22 01:08:18;;;;;;;;;;;;;;;-5.24;100.00;96347.88;10368195;28;1887;-72
2021/12/22 01:13:22;;;;;;;;;;;;;;;-5.22;100.00;96356.38;10361871;28;1838;-73
2021/12/22 01:18:31;;;;;;;;;;;;;;;-5.19;100.00;96361.31;10366371;28;1858;-73
2021/12/22 01:23:40;;;;;;;;;;;;;;;-5.14;100.00;96369.53;10388381;28;1807;-73
2021/12/22 01:28:44;;;;;;;;;;;;;;;-5.25;100.00;96373.25;10384171;28;1910;-73
2021/12/22 01:33:47;;;;;;;;;;;;;;;-5.11;100.00;96373.59;10379220;28;1965;-72
2021/12/22 01:38:51;;;;;;;;;;;;;;;-5.15;100.00;96375.75;10407148;28;2021;-73
2021/12/22 01:43:55;;;;;;;;;;;;;;;-5.26;100.00;96376.06;10389782;28;1819;-72
2021/12/22 01:49:10;;;;;;;;;;;;;;;-5.23;100.00;96381.78;10390239;28;1991;-72
2021/12/22 01:54:14;;;;;;;;;;;;;;;-5.30;100.00;96375.53;10360689;28;1816;-73
2021/12/22 01:59:20;;;;;;;;;;;;;;;-5.28;100.00;96368.34;10358503;28;1908;-73
2021/12/22 02:04:23;;;;;;;;;;;;;;;-5.33;100.00;96364.56;10363170;28;1884;-73
2021/12/22 02:09:43;;;;;;;;;;;;;;;-5.39;100.00;96359.97;10360715;28;1906;-72
2021/12/22 02:14:47;;;;;;;;;;;;;;;-5.34;100.00;96362.91;10360508;28;1921;-72
2021/12/22 02:19:50;;;;;;;;;;;;;;;-5.38;100.00;96362.41;10359346;28;1818;-71
2021/12/22 02:24:57;;;;;;;;;;;;;;;-5.44;100.00;96357.81;10361970;28;2334;-72
2021/12/22 02:30:04;;;;;;;;;;;;;;;-5.51;100.00;96357.63;10361006;28;1988;-72
2021/12/22 02:35:08;;;;;;;;;;;;;;;-5.48;100.00;96365.16;10357066;28;1800;-72
2021/12/22 02:40:16;;;;;;;;;;;;;;;-5.47;100.00;96361.59;10360406;28;1931;-72
2021/12/22 02:45:20;;;;;;;;;;;;;;;-5.53;100.00;96375.31;10380043;23;1967;-81
2021/12/22 02:50:24;;;;;;;;;;;;;;;-5.56;100.00;96370.38;10330682;28;2062;-80
2021/12/22 02:55:31;;;;;;;;;;;;;;;-5.52;100.00;96373.53;10329105;28;2028;-80
2021/12/22 03:00:47;;;;;;;;;;;;;;;-5.53;100.00;96374.50;10331540;28;2032;-80
2021/12/22 03:05:52;;;;;;;;;;;;;;;-5.47;100.00;96358.97;10325293;28;1985;-81
2021/12/22 03:10:55;;;;;;;;;;;;;;;-5.47;100.00;96368.59;10332400;28;1981;-81
2021/12/22 03:16:00;;;;;;;;;;;;;;;-5.50;100.00;96369.75;10332791;28;2005;-79
2021/12/22 03:21:17;;;;;;;;;;;;;;;-5.44;100.00;96366.50;10324116;28;2068;-79
2021/12/22 03:26:23;;;;;;;;;;;;;;;-5.43;100.00;96376.00;10329450;28;1907;-81
2021/12/22 03:31:27;;;;;;;;;;;;;;;-5.55;100.00;96371.22;10319697;28;1982;-82
2021/12/22 03:36:31;;;;;;;;;;;;;;;-5.58;100.00;96372.34;10335084;28;1964;-80
2021/12/22 03:41:35;;;;;;;;;;;;;;;-5.51;100.00;96360.25;10338910;28;2026;-80
2021/12/22 03:46:39;;;;;;;;;;;;;;;-5.50;100.00;96375.00;10328181;28;1957;-80
2021/12/22 03:51:43;;;;;;;;;;;;;;;-5.42;100.00;96366.34;10326729;28;2127;-80
2021/12/22 03:56:49;;;;;;;;;;;;;;;-5.43;100.00;96369.94;10328407;28;1912;-81
2021/12/22 04:01:53;;;;;;;;;;;;;;;-5.40;100.00;96368.81;10326156;28;1961;-81
2021/12/22 04:06:57;;;;;;;;;;;;;;;-5.46;100.00;96370.28;10323671;28;2034;-81
2021/12/22 04:12:01;;;;;;;;;;;;;;;-5.51;100.00;96373.34;10329093;28;2018;-80
2021/12/22 04:17:05;;;;;;;;;;;;;;;-5.61;100.00;96384.94;10326356;28;2020;-80
2021/12/22 04:22:09;;;;;;;;;;;;;;;-5.69;100.00;96379.66;10323905;28;2001;-80
2021/12/22 04:27:17;;;;;;;;;;;;;;;-5.69;100.00;96393.59;10327799;28;2242;-80
2021/12/22 04:32:20;;;;;;;;;;;;;;;-5.68;100.00;96392.59;10329911;28;1948;-80
2021/12/22 04:37:23;;;;;;;;;;;;;;;-5.74;100.00;96391.44;10328503;28;1977;-79
2021/12/22 04:42:27;;;;;;;;;;;;;;;-5.79;100.00;96391.09;10327092;28;2131;-79
2021/12/22 04:47:32;;;;;;;;;;;;;;;-5.76;100.00;96389.97;10340857;28;1961;-80
2021/12/22 04:52:42;;;;;;;;;;;;;;;-5.72;100.00;96391.28;10341004;28;2064;-80
2021/12/22 04:57:46;;;;;;;;;;;;;;;-5.90;100.00;96394.00;10340349;28;2148;-80
2021/12/22 05:02:50;;;;;;;;;;;;;;;-5.78;100.00;96395.34;10337983;28;1888;-80
2021/12/22 05:07:54;;;;;;;;;;;;;;;-5.68;100.00;96387.38;10335060;28;1995;-80
2021/12/22 05:12:57;;;;;;;;;;;;;;;-5.49;100.00;96396.78;10330247;28;1969;-80
2021/12/22 05:18:14;;;;;;;;;;;;;;;-5.34;100.00;96391.72;10333029;28;1980;-80
2021/12/22 05:23:18;;;;;;;;;;;;;;;-5.20;100.00;96396.38;10333855;28;1916;-79
2021/12/22 05:28:21;;;;;;;;;;;;;;;-5.19;100.00;96383.09;10333727;28;3279;-80
2021/12/22 05:33:25;;;;;;;;;;;;;;;-5.12;100.00;96395.56;10335204;28;1991;-80
2021/12/22 05:38:28;;;;;;;;;;;;;;;-5.02;100.00;96394.44;10346757;28;2052;-80
2021/12/22 05:43:31;;;;;;;;;;;;;;;-4.96;100.00;96390.38;10335780;28;1900;-81
2021/12/22 05:48:35;;;;;;;;;;;;;;;-4.83;100.00;96384.66;10339642;28;1999;-80
2021/12/22 05:53:39;;;;;;;;;;;;;;;-4.74;100.00;96387.09;10340383;28;1976;-81
2021/12/22 05:58:42;;;;;;;;;;;;;;;-4.66;100.00;96386.28;10339678;28;2111;-79
2021/12/22 06:03:47;;;;;;;;;;;;;;;-4.61;100.00;96391.84;10345740;28;1810;-80
2021/12/22 06:08:50;;;;;;;;;;;;;;;-4.68;100.00;96391.69;10352616;28;1938;-80
2021/12/22 06:13:55;;;;;;;;;;;;;;;-4.46;100.00;96384.13;10355468;28;2140;-79
2021/12/22 06:19:03;;;;;;;;;;;;;;;-4.44;100.00;96390.88;10354183;28;2042;-80
2021/12/22 06:24:07;;;;;;;;;;;;;;;-4.52;100.00;96385.59;10353039;28;3182;-79
2021/12/22 06:29:11;;;;;;;;;;;;;;;-4.51;100.00;96387.28;10371979;28;2608;-81
2021/12/22 06:34:16;;;;;;;;;;;;;;;-4.58;100.00;96388.91;10362284;28;3045;-82
2021/12/22 06:39:19;;;;;;;;;;;;;;;-4.58;100.00;96391.53;10369604;28;1648;-81
2021/12/22 06:44:24;;;;;;;;;;;;;;;-4.61;100.00;96391.84;10360693;28;1973;-81
2021/12/22 06:49:28;;;;;;;;;;;;;;;-4.59;100.00;96389.88;10301613;23;3406;-67
2021/12/22 06:54:31;;;;;;;;;;;;;;;-4.68;100.00;96390.88;10294744;28;1762;-66
2021/12/22 06:59:35;;;;;;;;;;;;;;;-4.60;100.00;96390.03;10260277;28;1990;-67
2021/12/22 07:04:39;;;;;;;;;;;;;;;-4.65;100.00;96385.28;10242743;28;1920;-68
2021/12/22 07:09:42;;;;;;;;;;;;;;;-4.80;100.00;96392.16;10244596;28;1983;-68
2021/12/22 07:14:45;;;;;;;;;;;;;;;-4.73;100.00;96398.41;10241150;28;2003;-69
2021/12/22 07:19:50;;;;;;;;;;;;;;;-4.66;100.00;96402.00;10254958;28;2129;-67
2021/12/22 07:24:53;;;;;;;;;;;;;;;-4.55;100.00;96396.44;10242625;28;2047;-67
2021/12/22 07:29:57;;;;;;;;;;;;;;;-4.35;100.00;96395.13;10238914;29;1976;-69
2021/12/22 07:35:01;;;;;;;;;;;;;;;-4.22;100.00;96401.66;10242697;28;1955;-66
2021/12/22 07:40:04;;;;;;;;;;;;;;;-4.11;100.00;96394.28;10242669;28;2019;-67
2021/12/22 07:45:08;;;;;;;;;;;;;;;-4.14;100.00;96396.41;10240509;28;1960;-68
2021/12/22 07:50:12;;;;;;;;;;;;;;;-4.27;100.00;96398.72;10253370;28;2615;-68
2021/12/22 07:55:15;;;;;;;;;;;;;;;-4.24;100.00;96395.78;10241783;28;1901;-67
2021/12/22 08:00:19;;;;;;;;;;;;;;;-4.46;100.00;96394.63;10241334;28;1932;-71
2021/12/22 08:05:23;;;;;;;;;;;;;;;-4.38;100.00;96397.25;10239825;28;1964;-68
2021/12/22 08:10:26;;;;;;;;;;;;;;;-4.33;100.00;96399.38;10252235;29;2003;-68
2021/12/22 08:15:30;;;;;;;;;;;;;;;-4.31;100.00;96402.66;10253852;28;1927;-68
2021/12/22 08:20:33;;;;;;;;;;;;;;;-4.15;100.00;96403.44;10265673;28;2038;-67
2021/12/22 08:25:38;;;;;;;;;;;;;;;-3.96;100.00;96410.16;10266457;29;1914;-68
2021/12/22 08:30:42;;;;;;;;;;;;;;;-4.00;100.00;96414.13;10265654;28;1919;-69
2021/12/22 08:41:07;;;;;;;;;;;;;;;-4.04;100.00;96415.44;10258655;28;1916;-67
2021/12/22 08:46:10;;;;;;;;;;;;;;;-3.95;100.00;96424.91;10257262;28;1833;-69
2021/12/22 08:51:14;;;;;;;;;;;;;;;-3.98;100.00;96425.25;10249022;28;1920;-68
2021/12/22 08:56:18;;;;;;;;;;;;;;;-3.84;100.00;96429.81;10248379;28;2200;-68
2021/12/22 09:01:21;;;;;;;;;;;;;;;-3.53;100.00;96424.66;10241542;28;1946;-68
2021/12/22 09:06:25;;;;;;;;;;;;;;;-3.53;100.00;96429.09;10256469;28;1906;-69
2021/12/22 09:11:28;;;;;;;;;;;;;;;-3.44;99.88;96422.78;10241939;28;1910;-68
2021/12/22 09:16:32;;;;;;;;;;;;;;;-3.53;99.89;96434.34;10274682;23;2123;-73
2021/12/22 09:21:36;;;;;;;;;;;;;;;-3.47;99.28;96419.69;10309258;28;3234;-73
2021/12/22 09:26:40;;;;;;;;;;;;;;;-3.56;99.60;96434.69;10314563;28;2498;-72
2021/12/22 09:31:43;;;;;;;;;;;;;;;-3.08;98.08;96440.72;10316813;28;1941;-72
2021/12/22 09:36:47;;;;;;;;;;;;;;;-2.85;96.41;96443.41;10308976;28;2637;-73
2021/12/22 09:41:50;;;;;;;;;;;;;;;-2.78;95.57;96437.28;10312616;28;2130;-72
2021/12/22 09:46:54;;;;;;;;;;;;;;;-3.00;94.11;96445.94;10311150;28;1907;-72
2021/12/22 09:57:19;;;;;;;;;;;;;;;-3.21;96.23;96428.13;10317885;28;1887;-74
2021/12/22 10:02:25;;;;;;;;;;;;;;;-3.29;97.67;96429.00;10320712;28;2363;-72
2021/12/22 10:07:36;;;;;;;;;;;;;;;-2.86;96.23;96429.44;10312169;28;1939;-72
2021/12/22 10:12:40;;;;;;;;;;;;;;;-2.60;95.41;96421.19;10321184;28;1971;-74
2021/12/22 10:17:44;;;;;;;;;;;;;;;-2.18;93.50;96415.41;10319318;28;1871;-73
2021/12/22 10:22:47;;;;;;;;;;;;;;;-1.80;91.18;96401.41;10320216;28;1894;-73
2021/12/22 10:27:51;;;;;;;;;;;;;;;-1.96;88.83;96389.22;10322475;28;1984;-72
2021/12/22 10:32:55;;;;;;;;;;;;;;;-2.31;90.80;96383.59;10320548;28;1852;-73
2021/12/22 10:37:59;;;;;;;;;;;;;;;-2.29;92.11;96380.78;10317170;28;1892;-72
2021/12/22 10:43:02;;;;;;;;;;;;;;;-2.27;90.92;96368.28;10316381;28;2078;-73
2021/12/22 10:53:28;;;;;;;;;;;;;;;-2.49;92.60;96359.41;10318379;28;1805;-73
2021/12/22 10:58:33;;;;;;;;;;;;;;;-2.12;90.44;96349.84;10319325;28;1898;-72
2021/12/22 11:03:39;;;;;;;;;;;;;;;-2.36;91.27;96349.09;10318655;28;1803;-71
2021/12/22 11:08:43;;;;;;;;;;;;;;;-1.80;89.29;96349.50;10321817;28;1980;-72
2021/12/22 11:13:46;;;;;;;;;;;;;;;-2.65;89.89;96347.22;10327986;28;1818;-72
2021/12/22 11:18:51;;;;;;;;;;;;;;;-3.07;94.59;96339.78;10326872;28;2115;-72
2021/12/22 11:23:55;;;;;;;;;;;;;;;-3.13;94.51;96328.16;10331174;28;1903;-72
2021/12/22 11:28:58;;;;;;;;;;;;;;;-2.95;95.35;96333.13;10319333;28;1922;-73
2021/12/22 11:34:01;;;;;;;;;;;;;;;-2.49;92.85;96312.03;10314981;28;1839;-73
2021/12/22 11:39:05;;;;;;;;;;;;;;;-2.58;92.53;96313.09;10320363;28;1844;-72
2021/12/22 11:44:09;;;;;;;;;;;;;;;-2.80;92.86;96305.06;10319076;28;1852;-72
2021/12/22 11:49:13;;;;;;;;;;;;;;;-2.98;96.87;96303.75;10320860;28;1914;-73
2021/12/22 11:54:16;;;;;;;;;;;;;;;-2.63;94.92;96310.19;10316626;28;2054;-73
2021/12/22 11:59:19;;;;;;;;;;;;;;;-2.61;94.04;96303.75;10318724;28;1807;-73
2021/12/22 12:04:24;;;;;;;;;;;;;;;-2.80;94.27;96296.34;10314026;28;1869;-73
2021/12/22 12:09:27;;;;;;;;;;;;;;;-2.85;94.32;96291.63;10315172;28;1987;-73
2021/12/22 12:14:32;;;;;;;;;;;;;;;-2.84;95.62;96281.91;10313947;28;3281;-73
2021/12/22 12:24:56;;;;;;;;;;;;;;;-2.90;92.55;96272.91;10321916;28;1882;-73
2021/12/22 12:30:00;;;;;;;;;;;;;;;-3.12;93.76;96263.22;10314409;28;1914;-73
2021/12/22 12:35:03;;;;;;;;;;;;;;;-3.17;95.66;96257.69;10317028;28;1868;-72
2021/12/22 12:40:27;;;;;;;;;;;;;;;-2.63;94.96;96258.34;10321303;28;1884;-72
2021/12/22 12:45:30;;;;;;;;;;;;;;;-2.46;92.49;96256.41;10320409;28;1872;-73
2021/12/22 12:50:33;;;;;;;;;;;;;;;-2.93;93.71;96262.72;10318036;28;1975;-73
2021/12/22 12:55:37;;;;;;;;;;;;;;;-3.13;95.99;96253.69;10322984;28;1808;-74
2021/12/22 13:00:40;;;;;;;;;;;;;;;-3.35;95.92;96253.53;10318022;28;1859;-73
2021/12/22 13:05:44;;;;;;;;;;;;;;;-3.27;97.12;96235.06;10322383;28;1812;-72
2021/12/22 13:10:54;;;;;;;;;;;;;;;-3.22;96.56;96242.44;10317503;28;1951;-73
2021/12/22 13:15:57;;;;;;;;;;;;;;;-3.19;96.32;96236.81;10311238;28;3372;-72
2021/12/22 13:21:06;;;;;;;;;;;;;;;-3.17;96.50;96239.28;10318152;28;2703;-73
2021/12/22 13:26:10;;;;;;;;;;;;;;;-3.18;96.25;96232.38;10324918;28;1812;-73
2021/12/22 13:31:13;;;;;;;;;;;;;;;-3.23;96.00;96235.56;10326231;28;1935;-73
2021/12/22 13:36:17;;;;;;;;;;;;;;;-3.16;95.93;96235.66;10322568;28;1905;-71
2021/12/22 13:41:21;;;;;;;;;;;;;;;-3.10;95.78;96229.69;10324702;28;2018;-71
2021/12/22 13:46:24;;;;;;;;;;;;;;;-3.10;96.61;96224.44;10318715;28;1878;-72
2021/12/22 13:51:28;;;;;;;;;;;;;;;-3.07;96.91;96224.06;10318860;28;1914;-72
2021/12/22 13:56:31;;;;;;;;;;;;;;;-3.11;96.97;96225.44;10322046;28;1975;-71
2021/12/22 14:01:34;;;;;;;;;;;;;;;-3.15;98.17;96224.16;10323549;28;1928;-71
2021/12/22 14:06:42;;;;;;;;;;;;;;;-3.13;98.00;96219.50;10314720;28;1937;-71
2021/12/22 14:11:46;;;;;;;;;;;;;;;-3.06;98.58;96225.69;10321681;28;1922;-72
2021/12/22 14:16:49;;;;;;;;;;;;;;;-3.09;99.87;96220.81;10321166;28;1776;-72
2021/12/22 14:21:52;;;;;;;;;;;;;;;-3.12;99.54;96221.16;10315314;28;2291;-72
2021/12/22 14:26:58;;;;;;;;;;;;;;;-3.11;100.00;96225.44;10323804;28;1919;-71
2021/12/22 14:32:01;;;;;;;;;;;;;;;-3.13;99.48;96225.59;10319028;28;1910;-73
2021/12/22 14:37:05;;;;;;;;;;;;;;;-3.09;99.63;96223.44;10319213;28;1785;-73
2021/12/22 14:42:08;;;;;;;;;;;;;;;-3.12;100.00;96232.47;10321606;28;1820;-71
2021/12/22 14:47:12;;;;;;;;;;;;;;;-3.11;100.00;96230.69;10321531;28;1907;-73
2021/12/22 14:52:17;;;;;;;;;;;;;;;-3.16;99.34;96215.44;10316227;28;1894;-73
2021/12/22 14:57:21;;;;;;;;;;;;;;;-3.16;100.00;96204.91;10320138;28;2031;-71
2021/12/22 15:02:24;;;;;;;;;;;;;;;-3.19;100.00;96213.16;10318651;28;1859;-71
2021/12/22 15:07:28;;;;;;;;;;;;;;;-3.16;100.00;96209.38;10320366;28;1915;-73
2021/12/22 15:12:31;;;;;;;;;;;;;;;-3.21;100.00;96214.34;10317654;28;1971;-73
2021/12/22 15:17:35;;;;;;;;;;;;;;;-3.22;100.00;96208.25;10334720;28;1843;-73
2021/12/22 15:22:38;;;;;;;;;;;;;;;-3.32;100.00;96211.13;10320941;28;1827;-74
2021/12/22 15:27:41;;;;;;;;;;;;;;;-3.35;100.00;96215.91;10355588;22;2044;-70
2021/12/22 15:32:45;;;;;;;;;;;;;;;-3.40;100.00;96234.03;10365181;28;2010;-70
2021/12/22 15:37:48;;;;;;;;;;;;;;;-3.47;100.00;96227.84;10362072;28;1925;-69
2021/12/22 15:42:52;;;;;;;;;;;;;;;-3.48;100.00;96221.75;10363962;28;1967;-71
2021/12/22 15:47:56;;;;;;;;;;;;;;;-3.54;100.00;96233.78;10377862;28;2343;-69
2021/12/22 15:52:59;;;;;;;;;;;;;;;-3.54;100.00;96227.72;10356469;28;1949;-69
2021/12/22 15:58:03;;;;;;;;;;;;;;;-3.58;100.00;96229.88;10358156;28;1850;-69
2021/12/22 16:03:06;;;;;;;;;;;;;;;-3.62;100.00;96210.22;10360976;28;1839;-69
2021/12/22 16:08:10;;;;;;;;;;;;;;;-3.61;100.00;96226.78;10366615;28;1870;-69
2021/12/22 16:13:13;;;;;;;;;;;;;;;-3.61;100.00;96226.78;10365081;28;1925;-68
2021/12/22 16:18:17;;;;;;;;;;;;;;;-3.56;100.00;96225.28;10358476;28;3377;-69
2021/12/22 16:23:22;;;;;;;;;;;;;;;-3.64;100.00;96221.88;10359685;28;1844;-69
2021/12/22 16:28:41;;;;;;;;;;;;;;;-3.61;100.00;96211.03;10360254;28;1925;-67
2021/12/22 16:33:44;;;;;;;;;;;;;;;-3.58;100.00;96215.91;10363350;28;2013;-70
2021/12/22 16:38:49;;;;;;;;;;;;;;;-3.66;100.00;96208.91;10371424;28;1879;-68
2021/12/22 16:43:52;;;;;;;;;;;;;;;-3.61;100.00;96203.13;10359038;28;2215;-69
2021/12/22 16:48:56;;;;;;;;;;;;;;;-3.64;100.00;96198.22;10364511;28;1899;-68
2021/12/22 16:53:59;;;;;;;;;;;;;;;-3.69;100.00;96198.75;10378152;28;1919;-69
2021/12/22 16:59:03;;;;;;;;;;;;;;;-3.79;100.00;96190.28;10365040;28;1923;-69
2021/12/22 17:04:07;;;;;;;;;;;;;;;-3.70;100.00;96194.47;10384538;28;1851;-69
2021/12/22 17:09:10;;;;;;;;;;;;;;;-3.69;100.00;96193.50;10377326;28;1834;-69
2021/12/22 17:14:14;;;;;;;;;;;;;;;-3.80;100.00;96191.28;10377542;28;1981;-69
2021/12/22 17:19:17;;;;;;;;;;;;;;;-3.76;100.00;96182.03;10400342;28;3125;-70
2021/12/22 17:24:21;;;;;;;;;;;;;;;-3.78;100.00;96172.69;10399711;28;2695;-69
2021/12/22 17:29:24;;;;;;;;;;;;;;;-3.82;100.00;96173.06;10397395;28;1953;-70
2021/12/22 17:34:28;;;;;;;;;;;;;;;-3.85;100.00;96173.41;10394872;28;1981;-69
2021/12/22 17:39:31;;;;;;;;;;;;;;;-3.88;100.00;96181.63;10406065;28;2528;-68
2021/12/22 17:44:39;;;;;;;;;;;;;;;-3.82;100.00;96173.06;10393782;28;1996;-68
2021/12/22 17:49:43;;;;;;;;;;;;;;;-3.94;100.00;96171.81;10393248;28;1899;-69
2021/12/22 17:54:46;;;;;;;;;;;;;;;-3.86;100.00;96171.78;10391708;28;1811;-69
2021/12/22 17:59:49;;;;;;;;;;;;;;;-3.86;100.00;96160.44;10383322;28;1842;-68
2021/12/22 18:04:56;;;;;;;;;;;;;;;-3.93;100.00;96162.94;10378156;28;1771;-70
2021/12/22 18:09:59;;;;;;;;;;;;;;;-3.94;100.00;96165.75;10387900;28;1917;-68
2021/12/22 18:15:03;;;;;;;;;;;;;;;-3.95;100.00;96164.91;10390733;28;1902;-69
2021/12/22 18:20:06;;;;;;;;;;;;;;;-3.96;100.00;96173.78;10386181;28;1757;-68
2021/12/22 18:25:09;;;;;;;;;;;;;;;-3.95;100.00;96169.34;10378739;28;1899;-70
2021/12/22 18:30:13;;;;;;;;;;;;;;;-4.02;100.00;96163.97;10396970;28;2219;-69
2021/12/22 18:35:17;;;;;;;;;;;;;;;-3.95;100.00;96157.03;10393591;28;1880;-69
2021/12/22 18:40:24;;;;;;;;;;;;;;;-3.95;100.00;96145.72;10394550;28;2383;-69
2021/12/22 18:45:27;;;;;;;;;;;;;;;-4.08;100.00;96141.03;10393125;28;1863;-70
2021/12/22 18:50:31;;;;;;;;;;;;;;;-3.98;100.00;96141.63;10383131;28;2235;-69
2021/12/22 18:55:34;;;;;;;;;;;;;;;-3.90;100.00;96141.56;10386024;28;1318;-69
2021/12/22 19:00:38;;;;;;;;;;;;;;;-4.02;100.00;96131.66;10373818;28;1858;-68
2021/12/22 19:05:41;;;;;;;;;;;;;;;-4.10;100.00;96132.53;10383565;28;1973;-69
2021/12/22 19:10:45;;;;;;;;;;;;;;;-4.08;100.00;96117.41;10389014;28;1966;-69
2021/12/22 19:15:48;;;;;;;;;;;;;;;-4.12;100.00;96114.31;10383313;28;1850;-70
2021/12/22 19:20:53;;;;;;;;;;;;;;;-4.18;100.00;96114.19;10388833;28;1976;-70
2021/12/22 19:25:56;;;;;;;;;;;;;;;-4.13;100.00;96119.75;10386925;28;1851;-70
2021/12/22 19:31:00;;;;;;;;;;;;;;;-4.17;100.00;96097.47;10380047;28;1907;-68
2021/12/22 19:36:03;;;;;;;;;;;;;;;-4.11;100.00;96084.44;10387692;28;1874;-68
2021/12/22 19:41:07;;;;;;;;;;;;;;;-4.18;100.00;96082.69;10372072;28;1862;-71
2021/12/22 19:46:10;;;;;;;;;;;;;;;-4.25;100.00;96076.53;10387923;28;1847;-68
2021/12/22 19:51:14;;;;;;;;;;;;;;;-4.25;100.00;96084.41;10363397;28;1938;-71
2021/12/22 19:56:17;;;;;;;;;;;;;;;-4.25;100.00;96087.03;10378085;28;1870;-70
2021/12/22 20:01:20;;;;;;;;;;;;;;;-4.33;100.00;96087.03;10363413;28;1874;-68
2021/12/22 20:06:24;;;;;;;;;;;;;;;-4.44;100.00;96078.59;10364873;28;1847;-68
2021/12/22 20:11:27;;;;;;;;;;;;;;;-4.39;100.00;96081.53;10370983;28;1938;-70
2021/12/22 20:16:31;;;;;;;;;;;;;;;-4.45;100.00;96082.22;10375512;28;3287;-70
2021/12/22 20:21:36;;;;;;;;;;;;;;;-4.36;100.00;96077.72;10361522;28;1830;-69
2021/12/22 20:26:39;;;;;;;;;;;;;;;-4.43;100.00;96074.97;10361120;28;2281;-69
2021/12/22 20:31:42;;;;;;;;;;;;;;;-4.43;100.00;96064.47;10362168;28;1974;-70
2021/12/22 20:36:46;;;;;;;;;;;;;;;-4.66;100.00;96061.00;10358479;28;1967;-69
2021/12/22 20:41:50;;;;;;;;;;;;;;;-4.65;100.00;96060.81;10357459;28;1909;-70
2021/12/22 20:46:53;;;;;;;;;;;;;;;-4.49;100.00;96065.16;10357774;28;1842;-68
2021/12/22 20:51:57;;;;;;;;;;;;;;;-4.62;100.00;96067.53;10359510;28;2012;-68
2021/12/22 20:57:01;;;;;;;;;;;;;;;-4.69;100.00;96054.28;10359311;28;2240;-68
2021/12/22 21:02:05;;;;;;;;;;;;;;;-4.68;100.00;96048.06;10370627;28;2165;-69
2021/12/22 21:07:09;;;;;;;;;;;;;;;-4.73;100.00;96032.00;10358274;28;1913;-68
2021/12/22 21:12:13;;;;;;;;;;;;;;;-4.76;100.00;96037.63;10363968;28;1958;-69
2021/12/22 21:17:17;;;;;;;;;;;;;;;-4.76;100.00;96032.38;10348192;28;3491;-69
2021/12/22 21:22:20;;;;;;;;;;;;;;;-4.76;100.00;96026.31;10359365;28;2575;-69
2021/12/22 21:27:24;;;;;;;;;;;;;;;-4.76;100.00;96021.06;10358799;28;1941;-68
2021/12/22 21:32:28;;;;;;;;;;;;;;;-4.79;100.00;96016.16;10353546;23;1942;-73
2021/12/22 21:37:31;;;;;;;;;;;-3.50;99.90;;;-4.76;100.00;96010.56;10331169;28;2592;-71
2021/12/22 21:42:34;;;;;;;;;;;-3.50;99.90;;;-4.80;100.00;96006.66;10319694;28;2018;-74
2021/12/22 21:47:37;;;;;;;;;;;-3.30;99.90;;;-4.88;100.00;96006.72;10327744;28;1893;-73
2021/12/22 21:52:40;;;;;;;;;;;-3.30;99.90;;;-4.95;100.00;96004.78;10329338;28;1895;-73
2021/12/22 21:57:44;;;;;;;;;;;-3.40;99.90;;;-4.95;100.00;96015.25;10331604;28;1946;-73
2021/12/22 22:02:47;;;;;;;;;;;-3.50;99.90;;;-4.99;100.00;96006.09;10322409;28;1800;-70
2021/12/22 22:07:51;;;;;;;;;;;-3.60;99.90;;;-5.02;100.00;96001.19;10320970;28;1844;-72
2021/12/22 22:12:54;;;;;;;;;;;-3.60;99.90;;;-5.01;100.00;95997.59;10320506;28;1972;-73
2021/12/22 22:17:56;;;;;;;;;;;-3.60;99.90;;;-4.94;100.00;95993.28;10326141;28;2300;-74
2021/12/22 22:22:59;;;;;;;;;;;-3.70;99.90;;;-4.96;100.00;96000.53;10335306;28;1852;-72
2021/12/22 22:28:03;;;;;;;;;;;-3.60;99.90;;;-4.86;100.00;95994.22;10374737;28;1911;-74
2021/12/22 22:33:06;;;;;;;;;;;-3.60;99.90;;;-4.93;100.00;95989.66;10390581;28;1977;-75
2021/12/22 22:38:08;;;;;;;;;;;-3.60;99.90;;;-4.93;100.00;95984.44;10358892;28;1895;-72
2021/12/22 22:43:11;;;;;;;;;;;-3.70;99.90;;;-5.01;100.00;95989.72;10325152;28;1914;-75
2021/12/22 22:48:14;;;;;;;;;;;-3.70;99.90;;;-5.05;100.00;95990.22;10322756;28;1887;-71
2021/12/22 22:53:18;;;;;;;;;;;-3.70;99.90;;;-5.06;100.00;95989.41;10331475;28;1966;-75
2021/12/22 22:58:21;;;;;;;;;;;-3.80;99.90;;;-5.16;100.00;95979.13;10364714;28;1867;-74
2021/12/22 23:03:24;;;;;;;;;;;-3.80;99.90;;;-5.14;100.00;95971.13;10343719;28;2555;-72
2021/12/22 23:08:27;;;;;;;;;;;-3.90;99.90;;;-5.08;100.00;95978.28;10345897;28;1848;-73
2021/12/22 23:13:31;;;;;;;;;;;-3.00;99.90;;;-5.12;100.00;95984.03;10351761;28;1918;-72
2021/12/22 23:18:34;;;;;;;;;;;-3.80;99.90;;;-5.11;100.00;95980.44;10322800;28;1774;-73
2021/12/22 23:23:37;;;;;;;;;;;-3.90;99.90;;;-5.17;100.00;95980.13;10336427;28;1827;-73
2021/12/22 23:28:40;;;;;;;;;;;-3.90;99.90;;;-5.14;100.00;95989.47;10326136;28;1778;-72
2021/12/22 23:33:43;;;;;;;;;;;-3.90;99.90;;;-5.21;100.00;95981.47;10327240;28;1981;-72
2021/12/22 23:39:15;;;;;;;;;;;-3.90;99.90;;;-5.22;100.00;95976.38;10335196;28;1880;-72
2021/12/22 23:49:41;;;;;;;;;;;-3.90;99.90;;;-5.34;100.00;95975.09;10306945;28;1773;-72
2021/12/22 23:54:45;;;;;;;;;;;-4.00;99.90;;;-5.24;100.00;95965.25;10328115;28;1977;-74
2021/12/22 23:59:48;;;;;;;;;;;-3.90;99.90;;;-5.33;100.00;95940.09;10319147;28;1867;-72
